Abbot Village, Maine
Current Conditions -  °F | °C
As of 11:53 AM on Thursday 23 Oct 2014 (Local Time) from KBGR Reporting Station
Heavy Rain Heavy Rain  
Wind Chill: 50°   Ceiling: 1400
Heat Index: 50°   Visibility: 1.5mi
Dew Point: 47°   Wind: 20mph
Humidity: 89%   Direction: 30°NNE
Pressure: 29.9"   Gusts: 29mph
Location:  45.19°N, 69.45°W
Report Text: KBGR 231553Z 03017G25KT 1 1/2SM R15/5000VP6000FT +RA BR OVC014 10/08 A2990 RMK AO2 PK WND 04028/1532 TWR VIS 2 SLP125 P0010 T01000083
Loading
Personal Weather Stations






























Interactive Weather Map New forecast layout! Learn more

10-Day Weather Forecast

Advertisements
Track Severe Weather on mobile